Historique des mesures à Cassis (13260), France
Quotidien Résumé Juin 27, 2017 Unités:  US    Métrique   Métrique/US
« Précédent (Jour)
Suivant (Jour) »
Quotidien Hebdomadaire Mensuel Annuel Période au choix
  Maximum: Minimum: Moyenne:
Température: 32 °F 73 °F 78.6 °F
Point de rosée: 32 °F 65.5 °F 66.7 °F
Humidité: Humidity % 51 % 64 %
Vitesse du vent: WindSpeedKMH mph 0.0 mph 2.5 mph
Rafales: WindSpeedGustKMH mph - -
Vent:- - SSE
Pression: 0 in 29.6 in -
Précipitations: 0 in    
Historical Graphs
 
 
Mesures pour : Juin 27, 2017
Heure Temperature Point de rosée Pression Vent Vitesse du vent Rafales Humidité Pluie (par heure) Conditions
32 °F 32 °F 0 in Calm     Humidity % 0 in SoftwareType W/m2
00:10 75.6 °F 67.8 °F 29.7 in Calm     77 % 0 in open2300-1.11 W/m2
01:10 74.3 °F 67.1 °F 29.7 in Calm     78 % 0 in open2300-1.11 W/m2
02:10 74.3 °F 66.4 °F 29.7 in Calm     76 % 0 in open2300-1.11 W/m2
03:10 74.1 °F 66 °F 29.7 in Calm     76 % 0 in open2300-1.11 W/m2
04:10 74.1 °F 66 °F 29.7 in NNE 1.8 mph 1.8 mph 76 % 0 in open2300-1.11 W/m2
05:10 73.9 °F 65.8 °F 29.7 in Calm   2.6 mph 76 % 0 in open2300-1.11 W/m2
06:10 73 °F 65.5 °F 29.7 in Calm     77 % 0 in open2300-1.11 W/m2
07:10 73.4 °F 65.8 °F 29.7 in Calm     77 % 0 in open2300-1.11 W/m2
08:10 77.5 °F 67.8 °F 29.7 in Calm     72 % 0 in open2300-1.11 W/m2
09:11 77.7 °F 67.6 °F 29.7 in SSE 2.6 mph 5.8 mph 71 % 0 in open2300-1.11 W/m2
10:10 80.8 °F 69.6 °F 29.7 in South 4.0 mph 4.0 mph 69 % 0 in open2300-1.11 W/m2
11:11 87.1 °F 70.5 °F 29.7 in SE 3.5 mph 4.7 mph 58 % 0 in open2300-1.11 W/m2
12:10 88.9 °F 72.9 °F 29.7 in SSE 11.1 mph 11.1 mph 59 % 0 in open2300-1.11 W/m2
13:11 89.2 °F 70.9 °F 29.7 in South 5.0 mph 9.3 mph 55 % 0 in open2300-1.11 W/m2
14:10 89.6 °F 70.7 °F 29.7 in SSE 4.7 mph 5.0 mph 54 % 0 in open2300-1.11 W/m2
15:10 88.3 °F 69.1 °F 29.7 in SE 5.8 mph 5.8 mph 53 % 0 in open2300-1.11 W/m2
16:10 87.4 °F 68.7 °F 29.7 in SE 2.1 mph 5.8 mph 54 % 0 in open2300-1.11 W/m2
17:10 87.4 °F 67.1 °F 29.6 in SSW 4.0 mph 10.1 mph 51 % 0 in open2300-1.11 W/m2
18:10 84.9 °F 69.1 °F 29.6 in SSE 1.4 mph 9.0 mph 59 % 0 in open2300-1.11 W/m2
19:10 83.8 °F 69.4 °F 29.6 in West 8.7 mph 9.0 mph 62 % 0 in open2300-1.11 W/m2
20:10 82.6 °F 68.5 °F 29.6 in SSE 5.0 mph 5.8 mph 63 % 0 in open2300-1.11 W/m2
21:10 80.2 °F 67.8 °F 29.6 in SSE 2.6 mph 3.2 mph 66 % 0 in open2300-1.11 W/m2
22:11 78.6 °F 68 °F 29.6 in Calm   1.4 mph 70 % 0 in open2300-1.11 W/m2
23:11 77.7 °F 67.6 °F 29.6 in Calm   2.1 mph 71 % 0 in open2300-1.11 W/m2
Observations météo à CASSIS
WU-History script by Weather Underground - 1 mb